createdAt,value
2023-09-09T00:00:02.678Z,13.70
2023-09-09T00:02:30.767Z,15.40
2023-09-09T00:04:58.963Z,12.60
2023-09-09T00:07:27.086Z,14.30
2023-09-09T00:09:55.254Z,13.20
2023-09-09T00:12:23.180Z,12.50
2023-09-09T00:14:51.072Z,15.90
2023-09-09T00:17:19.406Z,16.20
2023-09-09T00:19:47.496Z,14.70
2023-09-09T00:22:29.241Z,18.30
2023-09-09T00:24:59.171Z,17.10
2023-09-09T00:27:27.994Z,16.00
2023-09-09T00:29:56.053Z,14.90
2023-09-09T00:32:24.607Z,15.40
2023-09-09T00:34:56.190Z,14.40
2023-09-09T00:37:24.207Z,14.70
2023-09-09T00:39:53.552Z,15.90
2023-09-09T00:42:21.453Z,16.30
2023-09-09T00:44:49.329Z,15.40
2023-09-09T00:47:19.367Z,14.10
2023-09-09T00:49:47.657Z,13.40
2023-09-09T00:52:15.637Z,13.80
2023-09-09T00:54:43.807Z,13.60
2023-09-09T00:57:13.977Z,14.70
2023-09-09T00:59:41.962Z,12.80
2023-09-09T01:02:10.109Z,13.90
2023-09-09T01:04:38.125Z,13.30
2023-09-09T01:07:06.330Z,12.70
2023-09-09T01:09:35.382Z,13.60
2023-09-09T01:12:04.954Z,14.60
2023-09-09T01:14:35.019Z,15.80
2023-09-09T01:17:04.084Z,14.50
2023-09-09T01:19:32.769Z,14.60
2023-09-09T01:22:03.781Z,14.70
2023-09-09T01:24:32.181Z,14.70
2023-09-09T01:27:00.090Z,13.40
2023-09-09T01:29:28.048Z,15.10
2023-09-09T01:31:55.957Z,13.90
2023-09-09T01:34:23.903Z,14.00
2023-09-09T01:36:51.917Z,14.70
2023-09-09T01:39:19.766Z,13.40
2023-09-09T01:41:47.813Z,14.60
2023-09-09T01:44:15.751Z,14.70
2023-09-09T01:46:43.602Z,15.40
2023-09-09T01:49:11.696Z,15.20
2023-09-09T01:51:39.827Z,15.60
2023-09-09T01:54:07.724Z,15.60
2023-09-09T01:56:35.549Z,15.70
2023-09-09T01:59:03.442Z,14.20
2023-09-09T02:01:31.910Z,15.70
2023-09-09T02:04:00.166Z,13.90
2023-09-09T02:06:29.791Z,14.10
2023-09-09T02:08:57.931Z,16.10
2023-09-09T02:11:27.149Z,13.70
2023-09-09T02:13:55.241Z,16.20
2023-09-09T02:16:23.629Z,17.70
2023-09-09T02:18:51.637Z,14.10
2023-09-09T02:21:19.743Z,14.00
2023-09-09T02:23:47.798Z,16.40
2023-09-09T02:26:15.710Z,15.40
2023-09-09T02:28:47.267Z,16.40
2023-09-09T02:31:15.215Z,15.40
2023-09-09T02:33:43.351Z,17.50
2023-09-09T02:36:11.447Z,14.50
2023-09-09T02:38:39.437Z,13.40
2023-09-09T02:41:07.311Z,13.40
2023-09-09T02:43:35.478Z,14.00
2023-09-09T02:46:05.549Z,15.40
2023-09-09T02:48:33.586Z,14.00
2023-09-09T02:51:01.570Z,16.00
2023-09-09T02:53:31.316Z,15.20
2023-09-09T02:55:59.214Z,14.30
2023-09-09T02:58:27.132Z,13.50
2023-09-09T03:00:55.102Z,14.30
2023-09-09T03:03:23.124Z,12.90
2023-09-09T03:05:51.318Z,12.90
2023-09-09T03:08:19.142Z,12.10
2023-09-09T03:10:47.317Z,12.60
2023-09-09T03:13:15.224Z,12.90
2023-09-09T03:15:43.132Z,14.30
2023-09-09T03:18:11.044Z,14.00
2023-09-09T03:20:39.175Z,17.40
2023-09-09T03:23:08.348Z,15.10
2023-09-09T03:25:36.213Z,15.00
2023-09-09T03:28:04.507Z,15.20
2023-09-09T03:30:54.798Z,15.00
2023-09-09T03:33:23.046Z,14.40
2023-09-09T03:35:51.312Z,14.30
2023-09-09T03:38:19.441Z,30.70
2023-09-09T03:40:47.337Z,43.30
2023-09-09T03:43:16.134Z,19.50
2023-09-09T03:45:44.116Z,15.20
2023-09-09T03:48:12.061Z,15.30
2023-09-09T03:50:39.916Z,13.40
2023-09-09T03:53:07.910Z,21.60
2023-09-09T03:55:35.956Z,20.70
2023-09-09T03:58:04.209Z,23.10
2023-09-09T04:00:32.176Z,14.20
2023-09-09T04:03:00.323Z,17.40
2023-09-09T04:05:28.735Z,19.80
2023-09-09T04:07:59.543Z,19.70
2023-09-09T04:10:28.124Z,17.80
2023-09-09T04:12:56.194Z,18.00
2023-09-09T04:15:24.031Z,21.00
2023-09-09T04:17:51.946Z,24.00
2023-09-09T04:20:20.223Z,21.70
2023-09-09T04:22:48.125Z,18.50
2023-09-09T04:25:16.044Z,16.80
2023-09-09T04:27:43.916Z,15.10
2023-09-09T04:30:12.799Z,20.50
2023-09-09T04:32:40.648Z,20.50
2023-09-09T04:35:08.774Z,17.00
2023-09-09T04:37:37.248Z,15.40
2023-09-09T04:40:06.530Z,18.50
2023-09-09T04:42:34.460Z,13.10
2023-09-09T04:45:04.784Z,12.70
2023-09-09T04:47:32.777Z,13.70
2023-09-09T04:50:00.732Z,22.60
2023-09-09T04:52:28.766Z,23.30
2023-09-09T04:54:56.626Z,26.90
2023-09-09T04:57:24.604Z,18.70
2023-09-09T04:59:52.510Z,18.40
2023-09-09T05:02:20.487Z,22.30
2023-09-09T05:04:48.363Z,14.60
2023-09-09T05:07:18.293Z,15.10
2023-09-09T05:12:37.321Z,24.80
2023-09-09T05:15:11.596Z,23.30
2023-09-09T05:17:39.491Z,26.20
2023-09-09T05:20:08.316Z,24.80
2023-09-09T05:22:36.220Z,21.30
2023-09-09T05:25:04.663Z,16.30
2023-09-09T05:27:32.551Z,21.50
2023-09-09T05:30:00.399Z,22.10
2023-09-09T05:32:28.297Z,17.60
2023-09-09T05:34:56.222Z,14.40
2023-09-09T05:37:27.917Z,14.20
2023-09-09T05:39:55.950Z,11.90
2023-09-09T05:42:24.507Z,15.40
2023-09-09T05:44:52.465Z,15.70
2023-09-09T05:47:20.333Z,18.10
2023-09-09T05:49:48.379Z,22.60
2023-09-09T05:52:16.858Z,15.00
2023-09-09T05:54:45.223Z,15.50
2023-09-09T05:57:13.419Z,12.90
2023-09-09T05:59:41.631Z,12.20
2023-09-09T06:02:09.879Z,14.10
2023-09-09T06:04:38.143Z,12.90
2023-09-09T06:07:06.432Z,15.30
2023-09-09T06:09:34.374Z,13.40
2023-09-09T06:12:03.516Z,19.50
2023-09-09T06:14:31.591Z,15.70
2023-09-09T06:16:59.570Z,12.40
2023-09-09T06:19:27.557Z,18.60
2023-09-09T06:21:55.420Z,20.10
2023-09-09T06:24:23.263Z,18.10
2023-09-09T06:26:51.277Z,12.90
2023-09-09T06:29:19.294Z,12.70
2023-09-09T06:31:47.447Z,24.40
2023-09-09T06:34:15.564Z,20.10
2023-09-09T06:36:43.536Z,11.40
2023-09-09T06:39:11.518Z,11.80
2023-09-09T06:41:39.525Z,16.00
2023-09-09T06:44:07.715Z,12.20
2023-09-09T06:46:35.725Z,12.30
2023-09-09T06:49:04.800Z,8.50
2023-09-09T06:51:32.627Z,10.30
2023-09-09T06:54:00.484Z,9.50
2023-09-09T06:56:28.472Z,11.40
2023-09-09T06:58:57.876Z,11.70
2023-09-09T07:01:25.780Z,8.80
2023-09-09T07:03:53.676Z,8.20
2023-09-09T07:06:21.633Z,8.00
2023-09-09T07:08:50.862Z,9.20
2023-09-09T07:11:18.850Z,8.20
2023-09-09T07:13:46.805Z,11.50
2023-09-09T07:16:14.696Z,9.10
2023-09-09T07:18:42.670Z,10.10
2023-09-09T07:21:10.708Z,7.50
2023-09-09T07:23:38.876Z,6.70
2023-09-09T07:26:07.528Z,6.90
2023-09-09T07:28:35.646Z,6.00
2023-09-09T07:31:05.500Z,5.30
2023-09-09T07:33:33.798Z,6.40
2023-09-09T07:36:01.688Z,7.30
2023-09-09T07:38:29.724Z,5.80
2023-09-09T07:41:01.668Z,7.40
2023-09-09T07:43:29.738Z,5.20
2023-09-09T07:45:57.786Z,5.00
2023-09-09T07:48:27.029Z,5.50
2023-09-09T07:50:57.096Z,6.70
2023-09-09T07:53:25.185Z,9.20
2023-09-09T07:55:53.155Z,6.20
2023-09-09T07:58:21.096Z,5.60
2023-09-09T08:01:00.406Z,5.50
2023-09-09T08:03:28.536Z,7.20
2023-09-09T08:05:57.443Z,5.90
2023-09-09T08:08:25.612Z,6.80
2023-09-09T08:10:53.625Z,6.60
2023-09-09T08:13:21.901Z,7.70
2023-09-09T08:15:50.137Z,8.10
2023-09-09T08:18:18.367Z,7.90
2023-09-09T08:20:51.444Z,7.80
2023-09-09T08:23:20.251Z,7.50
2023-09-09T08:25:48.267Z,8.80
2023-09-09T08:28:18.535Z,9.50
2023-09-09T08:30:48.437Z,8.40
2023-09-09T08:33:16.616Z,14.30
2023-09-09T08:35:44.778Z,10.00
2023-09-09T08:38:12.755Z,7.90
2023-09-09T08:40:55.631Z,9.40
2023-09-09T08:43:41.892Z,7.60
2023-09-09T08:46:22.210Z,9.00
2023-09-09T08:48:52.260Z,7.40
2023-09-09T08:51:30.410Z,9.30
2023-09-09T08:53:59.004Z,9.00
2023-09-09T08:56:28.079Z,8.60
2023-09-09T08:58:57.479Z,10.70
2023-09-09T09:01:28.157Z,10.10
2023-09-09T09:03:57.552Z,9.20
2023-09-09T09:06:27.742Z,9.90
2023-09-09T09:08:55.865Z,8.20
2023-09-09T09:11:24.412Z,9.00
2023-09-09T09:13:53.006Z,8.90
2023-09-09T09:16:20.991Z,9.80
2023-09-09T09:18:49.224Z,7.90
2023-09-09T09:21:17.156Z,12.10
2023-09-09T09:23:46.954Z,9.20
2023-09-09T09:26:29.335Z,7.60
2023-09-09T09:29:03.060Z,12.30
2023-09-09T09:31:31.411Z,9.10
2023-09-09T09:34:01.074Z,10.00
2023-09-09T09:36:29.327Z,10.90
2023-09-09T09:38:59.759Z,9.60
2023-09-09T09:41:30.821Z,9.10
2023-09-09T09:43:58.852Z,9.50
2023-09-09T09:46:26.897Z,8.10
2023-09-09T09:48:54.851Z,9.80
2023-09-09T09:51:22.758Z,10.20
2023-09-09T09:53:50.640Z,8.10
2023-09-09T09:56:21.187Z,11.40
2023-09-09T09:58:51.723Z,10.80
2023-09-09T10:01:19.743Z,9.70
2023-09-09T10:03:59.843Z,8.30
2023-09-09T10:06:30.349Z,10.40
2023-09-09T10:09:13.091Z,8.50
2023-09-09T10:11:53.401Z,10.00
2023-09-09T10:14:26.450Z,9.40
2023-09-09T10:16:55.035Z,13.50
2023-09-09T10:19:24.811Z,11.50
2023-09-09T10:21:56.472Z,13.60
2023-09-09T10:24:25.794Z,9.70
2023-09-09T10:26:55.572Z,13.40
2023-09-09T10:29:25.154Z,9.50
2023-09-09T10:31:54.175Z,8.90
2023-09-09T10:34:24.028Z,9.20
2023-09-09T10:37:01.894Z,7.80
2023-09-09T10:39:32.969Z,8.50
2023-09-09T10:42:02.307Z,10.20
2023-09-09T10:44:30.353Z,8.00
2023-09-09T10:46:59.295Z,10.30
2023-09-09T10:49:31.981Z,11.90
2023-09-09T10:52:00.381Z,8.50
2023-09-09T10:54:28.481Z,8.00
2023-09-09T10:57:03.837Z,8.00
2023-09-09T10:59:33.840Z,10.50
2023-09-09T11:02:23.375Z,8.50
2023-09-09T11:05:12.455Z,9.40
2023-09-09T11:07:43.378Z,10.80
2023-09-09T11:10:17.553Z,8.30
2023-09-09T11:13:00.231Z,7.60
2023-09-09T11:15:28.515Z,9.60
2023-09-09T11:17:57.091Z,8.50
2023-09-09T11:20:25.624Z,9.00
2023-09-09T11:22:54.057Z,9.80
2023-09-09T11:25:22.411Z,9.30
2023-09-09T11:27:52.081Z,11.60
2023-09-09T11:30:20.541Z,8.20
2023-09-09T11:32:50.126Z,8.00
2023-09-09T11:35:18.462Z,8.60
2023-09-09T11:37:46.564Z,9.50
2023-09-09T11:40:18.784Z,11.30
2023-09-09T11:42:53.716Z,8.20
2023-09-09T11:45:23.937Z,9.90
2023-09-09T11:47:52.156Z,8.60
2023-09-09T11:50:20.351Z,10.50
2023-09-09T11:52:48.380Z,10.00
2023-09-09T11:55:19.268Z,9.30
2023-09-09T11:57:57.439Z,8.90
2023-09-09T12:00:25.807Z,8.60
2023-09-09T12:02:54.435Z,7.90
2023-09-09T12:05:33.649Z,8.50
2023-09-09T12:08:03.510Z,9.10
2023-09-09T12:10:37.918Z,7.50
2023-09-09T12:13:07.556Z,8.40
2023-09-09T12:15:35.849Z,9.30
2023-09-09T12:18:17.348Z,8.70
2023-09-09T12:21:08.389Z,11.70
2023-09-09T12:23:40.205Z,9.80
2023-09-09T12:26:19.995Z,7.80
2023-09-09T12:29:13.507Z,9.70
2023-09-09T12:31:57.334Z,9.10
2023-09-09T12:34:27.962Z,10.20
2023-09-09T12:37:00.918Z,10.00
2023-09-09T12:39:31.736Z,10.70
2023-09-09T12:42:08.926Z,9.30
2023-09-09T12:44:52.213Z,9.90
2023-09-09T12:47:24.916Z,8.70
2023-09-09T12:49:53.903Z,8.70
2023-09-09T12:52:22.025Z,9.20
2023-09-09T12:54:49.953Z,8.30
2023-09-09T12:57:17.879Z,9.50
2023-09-09T12:59:45.762Z,8.30
2023-09-09T13:02:13.691Z,9.20
2023-09-09T13:04:41.613Z,9.50
2023-09-09T13:07:09.437Z,8.30
2023-09-09T13:09:37.375Z,9.00
2023-09-09T13:12:06.204Z,11.00
2023-09-09T13:14:34.396Z,10.60
2023-09-09T13:17:02.463Z,9.70
2023-09-09T13:19:32.032Z,11.70
2023-09-09T13:22:02.647Z,10.30
2023-09-09T13:24:30.529Z,8.60
2023-09-09T13:26:58.730Z,8.30
2023-09-09T13:29:26.729Z,9.20
2023-09-09T13:31:55.662Z,9.10
2023-09-09T13:34:23.687Z,11.60
2023-09-09T13:36:51.783Z,11.00
2023-09-09T13:39:19.846Z,9.60
2023-09-09T13:41:48.077Z,9.80
2023-09-09T13:44:16.164Z,8.50
2023-09-09T13:46:44.223Z,8.20
2023-09-09T13:49:12.505Z,9.40
2023-09-09T13:51:40.778Z,8.90
2023-09-09T13:54:09.249Z,9.30
2023-09-09T13:56:37.337Z,9.90
2023-09-09T13:59:05.714Z,9.60
2023-09-09T14:01:33.682Z,10.50
2023-09-09T14:04:02.129Z,9.30
2023-09-09T14:06:30.291Z,8.10
2023-09-09T14:09:00.870Z,9.70
2023-09-09T14:11:28.848Z,7.80
2023-09-09T14:13:57.852Z,7.40
2023-09-09T14:16:27.654Z,8.60
2023-09-09T14:18:55.744Z,11.80
2023-09-09T14:21:24.906Z,10.30
2023-09-09T14:23:52.954Z,9.10
2023-09-09T14:26:20.955Z,10.20
2023-09-09T14:28:48.915Z,7.80
2023-09-09T14:31:16.960Z,8.00
2023-09-09T14:33:45.539Z,9.30
2023-09-09T14:36:13.527Z,9.60
2023-09-09T14:38:41.430Z,8.00
2023-09-09T14:41:09.405Z,7.70
2023-09-09T14:43:37.406Z,9.00
2023-09-09T14:46:05.792Z,8.90
2023-09-09T14:48:55.195Z,9.50
2023-09-09T14:51:23.444Z,8.50
2023-09-09T14:53:51.776Z,8.50
2023-09-09T14:56:19.924Z,9.20
2023-09-09T14:58:48.397Z,7.60
2023-09-09T15:01:17.177Z,10.10
2023-09-09T15:03:48.038Z,10.70
2023-09-09T15:06:16.324Z,7.40
2023-09-09T15:08:48.325Z,7.80
2023-09-09T15:11:16.600Z,8.70
2023-09-09T15:13:46.932Z,7.40
2023-09-09T15:16:16.906Z,8.90
2023-09-09T15:18:45.456Z,9.50
2023-09-09T15:21:14.374Z,8.00
2023-09-09T15:23:42.915Z,10.40
2023-09-09T15:26:11.320Z,8.60
2023-09-09T15:28:39.380Z,9.40
2023-09-09T15:31:08.232Z,10.50
2023-09-09T15:33:36.886Z,7.50
2023-09-09T15:36:05.366Z,10.00
2023-09-09T15:38:41.168Z,9.70
2023-09-09T15:41:09.475Z,8.50
2023-09-09T15:43:40.067Z,8.60
2023-09-09T15:46:08.545Z,8.50
2023-09-09T15:48:36.803Z,9.50
2023-09-09T15:51:06.195Z,9.10
2023-09-09T15:53:34.531Z,9.00
2023-09-09T15:56:06.631Z,9.30
2023-09-09T15:58:34.687Z,9.60
2023-09-09T16:01:02.999Z,9.90
2023-09-09T16:03:31.185Z,9.50
2023-09-09T16:06:06.512Z,9.40
2023-09-09T16:08:41.372Z,11.30
2023-09-09T16:11:09.924Z,9.40
2023-09-09T16:13:40.782Z,8.80
2023-09-09T16:16:12.180Z,9.20
2023-09-09T16:18:42.727Z,9.10
2023-09-09T16:21:13.989Z,7.80
2023-09-09T16:23:42.075Z,9.80
2023-09-09T16:26:10.223Z,8.20
2023-09-09T16:28:41.900Z,10.10
2023-09-09T16:31:10.882Z,9.30
2023-09-09T16:33:38.990Z,10.80
2023-09-09T16:36:07.620Z,7.70
2023-09-09T16:38:38.756Z,9.90
2023-09-09T16:41:07.613Z,9.00
2023-09-09T16:43:39.696Z,8.70
2023-09-09T16:46:09.160Z,9.70
2023-09-09T16:48:37.916Z,11.40
2023-09-09T16:51:07.842Z,9.40
2023-09-09T16:53:35.791Z,10.00
2023-09-09T16:56:04.109Z,8.70
2023-09-09T16:58:32.200Z,10.20
2023-09-09T17:01:00.223Z,10.30
2023-09-09T17:03:31.031Z,10.10
2023-09-09T17:06:01.770Z,8.70
2023-09-09T17:08:31.192Z,10.70
2023-09-09T17:10:59.339Z,9.50
2023-09-09T17:13:27.848Z,11.00
2023-09-09T17:15:56.223Z,10.70
2023-09-09T17:18:26.956Z,11.40
2023-09-09T17:20:57.110Z,12.90
2023-09-09T17:23:27.487Z,13.60
2023-09-09T17:26:07.171Z,12.90
2023-09-09T17:28:36.783Z,11.70
2023-09-09T17:31:05.969Z,10.90
2023-09-09T17:33:34.271Z,11.40
2023-09-09T17:36:02.543Z,13.00
2023-09-09T17:38:30.978Z,12.90
2023-09-09T17:41:01.465Z,12.20
2023-09-09T17:43:29.511Z,12.70
2023-09-09T17:45:57.583Z,10.00
2023-09-09T17:48:27.521Z,14.00
2023-09-09T17:50:55.685Z,12.40
2023-09-09T17:53:24.630Z,11.30
2023-09-09T17:55:52.604Z,13.80
2023-09-09T17:58:20.600Z,10.80
2023-09-09T18:00:48.725Z,12.80
2023-09-09T18:03:16.745Z,12.10
2023-09-09T18:05:44.926Z,13.30
2023-09-09T18:08:12.834Z,11.90
2023-09-09T18:10:42.396Z,11.80
2023-09-09T18:13:10.375Z,12.20
2023-09-09T18:15:38.549Z,19.00
2023-09-09T18:18:08.028Z,22.80
2023-09-09T18:20:35.994Z,19.70
2023-09-09T18:23:04.295Z,21.30
2023-09-09T18:25:32.241Z,24.10
2023-09-09T18:28:00.217Z,20.80
2023-09-09T18:30:28.339Z,28.10
2023-09-09T18:32:56.314Z,19.60
2023-09-09T18:35:24.247Z,14.70
2023-09-09T18:37:52.250Z,16.20
2023-09-09T18:40:20.189Z,15.80
2023-09-09T18:42:48.133Z,20.60
2023-09-09T18:45:16.290Z,23.00
2023-09-09T18:47:44.264Z,38.50
2023-09-09T18:50:12.454Z,34.00
2023-09-09T18:52:40.525Z,18.70
2023-09-09T18:55:09.268Z,9.90
2023-09-09T18:57:37.231Z,13.00
2023-09-09T19:00:06.551Z,12.40
2023-09-09T19:02:34.645Z,21.10
2023-09-09T19:05:02.961Z,33.20
2023-09-09T19:07:39.924Z,14.60
2023-09-09T19:10:11.236Z,21.30
2023-09-09T19:12:39.429Z,10.80
2023-09-09T19:15:08.366Z,13.10
2023-09-09T19:17:37.132Z,12.70
2023-09-09T19:20:07.171Z,11.20
2023-09-09T19:22:35.027Z,13.20
2023-09-09T19:25:03.904Z,12.40
2023-09-09T19:27:32.429Z,10.90
2023-09-09T19:30:01.082Z,14.90
2023-09-09T19:32:29.675Z,14.10
2023-09-09T19:34:57.967Z,12.20
2023-09-09T19:37:26.328Z,22.50
2023-09-09T19:39:59.388Z,14.40
2023-09-09T19:42:29.602Z,15.70
2023-09-09T19:44:59.251Z,10.90
2023-09-09T19:47:27.416Z,11.60
2023-09-09T19:49:55.772Z,11.10
2023-09-09T19:52:23.889Z,11.90
2023-09-09T19:54:52.045Z,12.30
2023-09-09T19:57:20.221Z,12.20
2023-09-09T19:59:48.257Z,14.80
2023-09-09T20:02:16.482Z,15.00
2023-09-09T20:04:44.831Z,14.10
2023-09-09T20:07:12.942Z,11.30
2023-09-09T20:10:00.014Z,12.80
2023-09-09T20:12:28.070Z,15.00
2023-09-09T20:14:56.191Z,14.50
2023-09-09T20:17:24.329Z,11.80
2023-09-09T20:19:52.598Z,11.30
2023-09-09T20:22:21.644Z,11.20
2023-09-09T20:24:49.864Z,13.10
2023-09-09T20:27:18.594Z,12.80
2023-09-09T20:29:46.461Z,11.60
2023-09-09T20:32:14.582Z,18.10
2023-09-09T20:34:43.016Z,11.50
2023-09-09T20:37:11.092Z,13.00
2023-09-09T20:39:40.028Z,16.50
2023-09-09T20:42:08.097Z,11.80
2023-09-09T20:44:36.421Z,12.50
2023-09-09T20:47:04.788Z,11.70
2023-09-09T20:49:33.161Z,11.30
2023-09-09T20:52:01.130Z,14.80
2023-09-09T20:54:29.151Z,13.50
2023-09-09T20:56:57.263Z,13.30
2023-09-09T20:59:25.161Z,15.20
2023-09-09T21:01:53.083Z,13.80
2023-09-09T21:04:21.454Z,16.10
2023-09-09T21:06:49.735Z,14.10
2023-09-09T21:09:18.234Z,13.20
2023-09-09T21:11:46.036Z,11.90
2023-09-09T21:14:14.009Z,12.60
2023-09-09T21:16:42.098Z,13.60
2023-09-09T21:19:09.986Z,13.50
2023-09-09T21:21:37.845Z,19.00
2023-09-09T21:24:08.351Z,19.00
2023-09-09T21:26:36.615Z,15.00
2023-09-09T21:29:04.615Z,14.30
2023-09-09T21:31:32.744Z,12.80
2023-09-09T21:34:01.167Z,12.20
2023-09-09T21:36:29.209Z,13.20
2023-09-09T21:38:57.389Z,13.20
2023-09-09T21:41:25.279Z,14.00
2023-09-09T21:43:53.234Z,14.20
2023-09-09T21:46:21.878Z,15.20
2023-09-09T21:48:50.628Z,15.50
2023-09-09T21:51:18.841Z,14.10
2023-09-09T21:53:46.897Z,14.40
2023-09-09T21:56:14.998Z,15.80
2023-09-09T21:58:43.129Z,14.40
2023-09-09T22:01:13.931Z,14.00
2023-09-09T22:03:45.884Z,13.70
2023-09-09T22:06:14.208Z,12.50
2023-09-09T22:08:42.196Z,13.30
2023-09-09T22:11:10.361Z,15.00
2023-09-09T22:13:39.059Z,11.40
2023-09-09T22:16:08.935Z,13.20
2023-09-09T22:18:38.414Z,15.00
2023-09-09T22:21:09.676Z,13.00
2023-09-09T22:23:38.637Z,14.30
2023-09-09T22:26:28.659Z,15.00
2023-09-09T22:28:57.639Z,10.40
2023-09-09T22:31:26.081Z,12.50
2023-09-09T22:33:55.123Z,12.40
2023-09-09T22:36:23.011Z,13.10
2023-09-09T22:38:52.733Z,11.60
2023-09-09T22:41:20.656Z,11.30
2023-09-09T22:43:48.541Z,15.20
2023-09-09T22:46:16.710Z,15.10
2023-09-09T22:48:44.596Z,12.20
2023-09-09T22:51:12.800Z,16.10
2023-09-09T22:53:40.892Z,13.70
2023-09-09T22:56:08.863Z,13.30
2023-09-09T22:58:37.079Z,13.60
2023-09-09T23:01:05.955Z,12.50
2023-09-09T23:03:34.399Z,11.20
2023-09-09T23:06:05.185Z,13.30
2023-09-09T23:08:34.145Z,13.20
2023-09-09T23:11:12.330Z,14.20
2023-09-09T23:13:42.599Z,11.40
2023-09-09T23:16:10.858Z,11.60
2023-09-09T23:18:39.798Z,11.30
2023-09-09T23:21:08.124Z,12.00
2023-09-09T23:23:37.699Z,10.70
2023-09-09T23:26:05.784Z,11.80
2023-09-09T23:28:33.647Z,10.90
2023-09-09T23:31:03.459Z,11.20
2023-09-09T23:33:32.683Z,9.20
2023-09-09T23:36:02.567Z,11.70
2023-09-09T23:38:31.982Z,10.30
2023-09-09T23:41:00.803Z,15.00
2023-09-09T23:43:28.872Z,11.10
2023-09-09T23:45:57.045Z,10.60
2023-09-09T23:48:26.158Z,9.80
2023-09-09T23:50:54.027Z,10.00
2023-09-09T23:53:21.873Z,12.40
2023-09-09T23:55:50.928Z,10.20
2023-09-09T23:58:20.573Z,9.30
